Holsbeek, Belgium
Current Conditions -  °F | °C
As of 12:50 PM on Thursday 27 Nov 2014 (Local Time) from EBBR Reporting Station
Few Clouds Few Clouds  
Wind Chill: 50°   Ceiling: Unl
Heat Index: 50°   Visibility: 6mi
Dew Point: 46°   Wind: 2mph
Humidity: 87%   Direction: NA
Pressure: 29.71"   Gusts: NA
Location:  50.92°N, 4.76°E
Report Text: EBBR 271150Z VRB02KT 9999 FEW040 10/08 Q1006 NOSIG
Loading
Personal Weather Stations






























Interactive Weather Map New forecast layout! Learn more

10-Day Weather Forecast

Advertisements
Track Severe Weather on mobile